Time;durP1;ratioP1;P1;durP2;ratioP2;P2;SDS_P1;SDS_P2;PMS_P1;PMS_P2;Temp;Humidity;BMP_temperature;BMP_pressure;BME280_temperature;BME280_humidity;BME280_pressure;Samples;Min_cycle;Max_cycle;Signal;HPM_P1;HPM_P2
2022/08/24 00:00:33;;;;;;;83.00;78.80;;;;;;;28.85;42.23;101608.16;5055948;28;20129;-80
2022/08/24 00:02:59;;;;;;;78.35;74.45;;;;;;;28.83;42.40;101610.47;5056173;28;20060;-81
2022/08/24 00:05:24;;;;;;;79.93;75.72;;;;;;;28.82;42.51;101619.13;5055671;28;20056;-81
2022/08/24 00:07:50;;;;;;;80.53;76.53;;;;;;;28.79;42.46;101614.28;5055686;28;20548;-78
2022/08/24 00:10:16;;;;;;;81.70;77.40;;;;;;;28.76;42.50;101618.56;5055209;28;20036;-80
2022/08/24 00:12:42;;;;;;;79.50;75.60;;;;;;;28.75;42.40;101607.78;5056658;28;20041;-79
2022/08/24 00:15:11;;;;;;;77.75;73.38;;;;;;;28.72;42.40;101612.06;5087754;28;20119;-79
2022/08/24 00:17:36;;;;;;;76.68;72.82;;;;;;;28.69;42.74;101618.31;5056286;28;20154;-80
2022/08/24 00:20:03;;;;;;;78.15;74.15;;;;;;;28.67;42.55;101615.06;5055429;28;20063;-79
2022/08/24 00:22:28;;;;;;;83.35;79.25;;;;;;;28.64;42.34;101619.34;5055327;28;20051;-79
2022/08/24 00:24:53;;;;;;;80.78;76.57;;;;;;;28.63;42.37;101616.94;5055600;28;20044;-81
2022/08/24 00:27:20;;;;;;;78.97;75.07;;;;;;;28.60;42.81;101623.16;5055561;28;20528;-81
2022/08/24 00:29:45;;;;;;;82.13;78.05;;;;;;;28.57;42.53;101618.28;5055396;28;20546;-80
2022/08/24 00:32:10;;;;;;;79.05;75.10;;;;;;;28.54;42.77;101622.56;5054368;28;20045;-80
2022/08/24 00:34:36;;;;;;;79.03;74.75;;;;;;;28.52;42.94;101616.53;5053879;28;20083;-81
2022/08/24 00:37:01;;;;;;;77.45;73.57;;;;;;;28.51;42.89;101622.47;5055314;28;20037;-80
2022/08/24 00:39:27;;;;;;;83.60;79.47;;;;;;;28.47;42.90;101617.56;5054056;28;20033;-80
2022/08/24 00:41:52;;;;;;;77.78;73.68;;;;;;;28.44;43.01;101621.03;5053804;28;20477;-81
2022/08/24 00:44:19;;;;;;;76.60;72.78;;;;;;;28.42;42.42;101622.50;5055468;28;20045;-80
2022/08/24 00:47:10;;;;;;;78.47;74.50;;;;;;;28.39;42.56;101621.22;5055090;28;20082;-81
2022/08/24 00:49:41;;;;;;;76.03;72.03;;;;;;;28.37;42.75;101625.50;5055674;28;20035;-80
2022/08/24 00:52:24;;;;;;;78.53;74.63;;;;;;;28.34;42.76;101628.97;5055192;28;20109;-78
2022/08/24 00:55:20;;;;;;;78.35;74.45;;;;;;;28.31;42.77;101621.31;5055334;28;20491;-79
2022/08/24 00:57:50;;;;;;;78.28;74.30;;;;;;;28.28;42.86;101625.59;5042547;28;20045;-79
2022/08/24 01:00:23;;;;;;;75.20;71.32;;;;;;;28.26;42.98;101622.34;5055510;28;20029;-80
2022/08/24 01:02:52;;;;;;;73.82;69.75;;;;;;;28.23;43.13;101609.16;5054659;28;20029;-80
2022/08/24 01:05:18;;;;;;;74.88;71.10;;;;;;;28.21;42.98;101606.69;5054615;28;20413;-80
2022/08/24 01:07:44;;;;;;;77.55;73.55;;;;;;;28.19;42.92;101608.19;5054437;28;20511;-79
2022/08/24 01:10:13;;;;;;;75.20;71.10;;;;;;;28.17;43.37;101607.72;5055275;28;20029;-81
2022/08/24 01:12:43;;;;;;;77.90;73.88;;;;;;;28.14;43.03;101612.00;5054118;28;20040;-80
2022/08/24 01:15:09;;;;;;;75.70;71.90;;;;;;;28.12;42.98;101610.72;5054800;28;20098;-80
2022/08/24 01:20:22;;;;;;;78.60;74.35;;;;;;;28.05;43.19;101612.09;5054648;28;20102;-81
2022/08/24 01:23:09;;;;;;;75.22;71.32;;;;;;;28.04;42.81;101613.22;5052235;28;20056;-80
2022/08/24 01:25:36;;;;;;;78.93;74.80;;;;;;;28.01;43.23;101602.81;5054758;28;20044;-80
2022/08/24 01:28:13;;;;;;;77.28;73.57;;;;;;;27.98;43.12;101606.28;5054113;28;20358;-80
2022/08/24 01:30:39;;;;;;;72.53;69.03;;;;;;;27.96;42.83;101608.56;5054513;28;20108;-79
2022/08/24 01:33:07;;;;;;;74.45;70.72;;;;;;;27.94;43.17;101607.28;5054279;28;20288;-80
2022/08/24 01:35:34;;;;;;;75.93;72.15;;;;;;;27.92;43.09;101602.09;5054072;28;20066;-80
2022/08/24 01:38:03;;;;;;;73.85;70.22;;;;;;;27.90;43.13;101600.81;5054175;28;20047;-79
2022/08/24 01:40:36;;;;;;;73.25;69.63;;;;;;;27.88;43.03;101597.56;5053805;28;20476;-77
2022/08/24 01:43:04;;;;;;;69.45;66.07;;;;;;;27.85;43.10;101601.00;5055076;28;20087;-77
2022/08/24 01:45:30;;;;;;;70.43;66.88;;;;;;;27.82;43.02;101591.38;5055685;28;20028;-79
2022/08/24 01:47:57;;;;;;;71.68;68.22;;;;;;;27.80;43.26;101600.03;5054182;28;20445;-80
2022/08/24 01:50:23;;;;;;;71.90;68.23;;;;;;;27.78;43.02;101598.75;5054588;28;20157;-80
2022/08/24 01:52:50;;;;;;;74.28;70.45;;;;;;;27.75;43.03;101599.44;5054681;28;20093;-79
2022/08/24 01:55:16;;;;;;;75.28;71.43;;;;;;;27.74;43.29;101606.13;5053724;28;20091;-86
2022/08/24 01:57:42;;;;;;;73.63;70.03;;;;;;;27.70;43.24;101600.44;5052396;28;20044;-80
2022/08/24 02:00:13;;;;;;;72.65;68.97;;;;;;;27.68;43.17;101597.19;5054008;28;20453;-79
2022/08/24 02:02:40;;;;;;;75.22;71.43;;;;;;;27.66;43.02;101601.44;5054409;28;20397;-79
2022/08/24 02:05:07;;;;;;;70.72;67.03;;;;;;;27.62;43.36;101596.59;5052725;28;20033;-79
2022/08/24 02:07:32;;;;;;;72.57;68.88;;;;;;;27.61;42.89;101602.47;5053662;28;20029;-78
2022/08/24 02:09:58;;;;;;;70.88;67.38;;;;;;;27.59;43.11;101605.59;5052722;28;20071;-79
2022/08/24 02:12:23;;;;;;;76.93;72.72;;;;;;;27.56;43.18;101603.47;5053467;28;20040;-80
2022/08/24 02:14:49;;;;;;;75.50;71.53;;;;;;;27.53;43.20;101604.16;5053813;28;20380;-79
2022/08/24 02:17:15;;;;;;;73.18;69.45;;;;;;;27.51;43.12;101614.75;5054160;28;20037;-79
2022/08/24 02:19:40;;;;;;;71.75;68.22;;;;;;;27.50;43.52;101607.59;5052967;28;20036;-79
2022/08/24 02:22:06;;;;;;;71.45;67.95;;;;;;;27.47;43.66;101616.59;5054098;28;20057;-79
2022/08/24 02:24:32;;;;;;;72.38;68.78;;;;;;;27.44;43.36;101614.47;5053557;28;20033;-80
2022/08/24 02:26:57;;;;;;;68.93;65.43;;;;;;;27.42;43.58;101622.34;5052600;28;20037;-80
2022/08/24 02:29:24;;;;;;;72.78;69.00;;;;;;;27.38;43.41;101619.41;5053519;28;20029;-79
2022/08/24 02:31:49;;;;;;;76.65;72.72;;;;;;;27.37;43.40;101628.09;5052184;28;20081;-79
2022/08/24 02:34:15;;;;;;;73.80;69.90;;;;;;;27.35;43.46;101631.19;5053137;28;20060;-78
2022/08/24 02:36:40;;;;;;;74.30;70.50;;;;;;;27.32;43.60;101629.09;5052900;28;20399;-78
2022/08/24 02:39:07;;;;;;;74.97;70.85;;;;;;;27.30;43.39;101633.34;5052273;28;20124;-80
2022/08/24 02:41:34;;;;;;;79.90;75.38;;;;;;;27.27;43.59;101626.53;5053407;28;20103;-80
2022/08/24 02:43:59;;;;;;;74.00;69.88;;;;;;;27.24;43.52;101621.66;5053082;28;20079;-80
2022/08/24 02:46:27;;;;;;;73.07;69.10;;;;;;;27.23;43.80;101627.53;5053548;28;20025;-78
2022/08/24 02:48:58;;;;;;;71.32;67.63;;;;;;;27.21;43.33;101621.50;5053262;28;20113;-80
2022/08/24 02:51:33;;;;;;;75.97;71.88;;;;;;;27.18;43.38;101620.19;5053489;28;20060;-79
2022/08/24 02:54:00;;;;;;;70.47;66.88;;;;;;;27.14;43.87;101614.50;5053086;28;20039;-80
2022/08/24 02:56:28;;;;;;;70.00;66.32;;;;;;;27.13;43.71;101623.13;5052870;28;20039;-79
2022/08/24 02:58:55;;;;;;;73.00;69.10;;;;;;;27.10;43.42;101618.25;5052163;28;20067;-79
2022/08/24 03:01:20;;;;;;;74.63;70.30;;;;;;;27.08;43.68;101617.78;5053011;28;20060;-79
2022/08/24 03:03:46;;;;;;;73.63;69.75;;;;;;;27.05;43.66;101616.47;5052932;28;20029;-80
2022/08/24 03:06:12;;;;;;;73.03;69.05;;;;;;;27.03;43.68;101618.78;5053394;28;20083;-80
2022/08/24 03:08:37;;;;;;;68.00;64.10;;;;;;;27.00;44.06;101619.44;5053003;28;20037;-79
2022/08/24 03:11:04;;;;;;;70.75;66.72;;;;;;;26.98;44.13;101617.00;5053726;28;20361;-80
2022/08/24 03:13:31;;;;;;;68.85;65.25;;;;;;;26.96;43.74;101616.53;5053019;28;20056;-79
2022/08/24 03:15:58;;;;;;;72.38;68.47;;;;;;;26.94;43.84;101609.69;5052494;28;20429;-80
2022/08/24 03:18:25;;;;;;;72.28;68.28;;;;;;;26.91;43.97;101611.19;5052909;28;20057;-80
2022/08/24 03:20:51;;;;;;;70.30;66.60;;;;;;;26.89;43.58;101612.66;5052770;28;20033;-79
2022/08/24 03:23:17;;;;;;;72.72;68.97;;;;;;;26.87;43.65;101612.16;5053183;28;20044;-79
2022/08/24 03:25:43;;;;;;;68.38;64.63;;;;;;;26.85;43.97;101606.13;5052706;28;20461;-79
2022/08/24 03:28:09;;;;;;;73.60;69.68;;;;;;;26.82;43.84;101618.72;5053158;28;20502;-78
2022/08/24 03:30:34;;;;;;;78.45;74.13;;;;;;;26.79;43.61;101608.28;5053283;28;20477;-79
2022/08/24 03:33:00;;;;;;;73.82;69.72;;;;;;;26.78;43.77;101606.66;5051471;28;20110;-77
2022/08/24 03:35:25;;;;;;;68.65;64.68;;;;;;;26.75;43.83;101613.66;5052376;28;20416;-79
2022/08/24 03:37:51;;;;;;;74.78;70.68;;;;;;;26.72;44.41;101608.78;5051674;28;20029;-78
2022/08/24 03:40:19;;;;;;;77.40;73.38;;;;;;;26.70;43.73;101616.63;5052404;28;20481;-79
2022/08/24 03:42:44;;;;;;;70.50;66.75;;;;;;;26.68;44.10;101618.91;5053307;28;20426;-79
2022/08/24 03:45:10;;;;;;;73.07;69.18;;;;;;;26.66;44.13;101612.06;5053896;28;20554;-80
2022/08/24 03:47:37;;;;;;;71.38;67.47;;;;;;;26.63;44.08;101610.78;5055736;28;20037;-80
2022/08/24 03:50:03;;;;;;;70.10;66.25;;;;;;;26.62;44.24;101613.88;5056225;28;20507;-79
2022/08/24 03:52:28;;;;;;;70.10;66.30;;;;;;;26.60;44.09;101611.44;5056283;28;20468;-79
2022/08/24 03:54:54;;;;;;;71.18;67.30;;;;;;;26.58;44.36;101612.91;5054916;28;20519;-79
2022/08/24 03:57:19;;;;;;;70.57;66.82;;;;;;;26.55;44.16;101615.19;5056197;28;20058;-79
2022/08/24 03:59:45;;;;;;;70.80;66.90;;;;;;;26.54;44.22;101610.81;5056097;28;20040;-79
2022/08/24 04:02:11;;;;;;;68.88;65.22;;;;;;;26.51;44.18;101610.59;5056369;28;20032;-79
2022/08/24 04:04:36;;;;;;;70.80;66.95;;;;;;;26.49;44.03;101615.69;5056356;28;20069;-80
2022/08/24 04:07:03;;;;;;;66.75;62.85;;;;;;;26.46;44.03;101617.16;5056051;28;20099;-81
2022/08/24 04:09:29;;;;;;;72.20;67.90;;;;;;;26.44;44.15;101624.19;5055976;28;20028;-79
2022/08/24 04:11:54;;;;;;;69.78;65.82;;;;;;;26.42;44.61;101615.38;5056163;28;20039;-77
2022/08/24 04:14:19;;;;;;;72.25;68.38;;;;;;;26.39;44.23;101616.84;5056065;28;20033;-78
2022/08/24 04:16:45;;;;;;;69.28;65.38;;;;;;;26.37;44.10;101619.13;5038708;28;20033;-78
2022/08/24 04:19:12;;;;;;;72.95;69.00;;;;;;;26.35;44.27;101604.78;5056231;28;20090;-79
2022/08/24 04:21:38;;;;;;;70.55;66.72;;;;;;;26.33;44.41;101618.97;5055731;28;20033;-77
2022/08/24 04:24:06;;;;;;;71.15;66.88;;;;;;;26.30;44.65;101619.63;5055831;28;20037;-78
2022/08/24 04:26:31;;;;;;;67.25;63.45;;;;;;;26.28;44.79;101627.47;5055968;28;20063;-77
2022/08/24 04:28:57;;;;;;;70.30;66.40;;;;;;;26.26;44.41;101626.97;5056147;28;20036;-77
2022/08/24 04:31:23;;;;;;;74.70;70.55;;;;;;;26.24;44.61;101623.72;5055369;28;20049;-79
2022/08/24 04:33:50;;;;;;;71.05;66.65;;;;;;;26.22;44.74;101620.44;5055216;28;20037;-78
2022/08/24 04:36:17;;;;;;;69.75;65.85;;;;;;;26.19;44.85;101621.13;5055338;28;20186;-78
2022/08/24 04:38:43;;;;;;;67.28;63.40;;;;;;;26.18;44.23;101624.19;5054114;28;20500;-79
2022/08/24 04:41:11;;;;;;;68.20;64.40;;;;;;;26.16;44.79;101624.53;5054968;28;20033;-78
2022/08/24 04:43:38;;;;;;;70.50;66.60;;;;;;;26.13;44.39;101627.94;5055065;28;20025;-78
2022/08/24 04:46:06;;;;;;;69.88;65.75;;;;;;;26.11;44.63;101625.53;5055187;28;20087;-78
2022/08/24 04:48:32;;;;;;;66.20;62.65;;;;;;;26.10;44.63;101631.38;5054963;28;20397;-79
2022/08/24 04:51:03;;;;;;;71.75;67.93;;;;;;;26.07;44.59;101627.31;5053824;28;20029;-78
2022/08/24 04:53:28;;;;;;;69.20;65.35;;;;;;;26.05;44.89;101624.03;5055090;28;20029;-78
2022/08/24 04:55:53;;;;;;;68.47;64.40;;;;;;;26.03;44.81;101626.34;5054704;28;20033;-77
2022/08/24 04:58:19;;;;;;;71.53;67.43;;;;;;;26.01;44.95;101619.50;5055241;28;20037;-76
2022/08/24 05:00:45;;;;;;;69.65;65.80;;;;;;;25.99;44.86;101632.84;5054929;28;20040;-79
2022/08/24 05:03:11;;;;;;;68.25;64.45;;;;;;;25.97;44.73;101633.16;5055523;28;20457;-80
2022/08/24 05:05:43;;;;;;;67.13;63.03;;;;;;;25.95;45.11;101629.09;5054852;28;20079;-79
2022/08/24 05:08:10;;;;;;;63.83;59.83;;;;;;;25.94;44.49;101630.25;5055253;28;20032;-79
2022/08/24 05:10:41;;;;;;;66.75;63.05;;;;;;;25.91;45.12;101631.72;5037419;28;20029;-82
2022/08/24 05:13:07;;;;;;;64.70;60.90;;;;;;;25.89;44.89;101628.44;5070034;28;20029;-80
2022/08/24 05:15:34;;;;;;;64.22;60.45;;;;;;;25.88;44.79;101626.84;5055479;28;20036;-78
2022/08/24 05:18:01;;;;;;;67.00;62.85;;;;;;;25.86;44.88;101641.00;5054895;28;20115;-80
2022/08/24 05:20:27;;;;;;;69.15;64.97;;;;;;;25.83;45.02;101627.78;5054283;28;20111;-79
2022/08/24 05:22:52;;;;;;;69.82;65.90;;;;;;;25.82;45.07;101634.44;5054993;28;20032;-78
2022/08/24 05:25:18;;;;;;;67.10;63.28;;;;;;;25.79;45.08;101635.09;5053067;28;20044;-78
2022/08/24 05:27:43;;;;;;;65.75;61.95;;;;;;;25.77;45.58;101645.66;5054341;28;20180;-78
2022/08/24 05:30:09;;;;;;;69.03;65.05;;;;;;;25.77;45.53;101647.63;5054372;28;20528;-79
2022/08/24 05:32:36;;;;;;;68.55;64.78;;;;;;;25.74;45.18;101645.50;5054523;28;20033;-78
2022/08/24 05:35:03;;;;;;;67.15;62.88;;;;;;;25.72;45.53;101647.78;5054088;28;20041;-79
2022/08/24 05:37:30;;;;;;;65.00;60.95;;;;;;;25.69;45.60;101655.59;5054298;28;20033;-79
2022/08/24 05:39:55;;;;;;;66.93;62.83;;;;;;;25.68;45.53;101656.72;5054739;28;20167;-81
2022/08/24 05:42:20;;;;;;;69.93;65.45;;;;;;;25.67;45.70;101657.03;5054155;28;20111;-81
2022/08/24 05:44:46;;;;;;;71.32;66.63;;;;;;;25.66;45.90;101666.50;5052980;28;20452;-82
2022/08/24 05:47:11;;;;;;;75.93;70.78;;;;;;;25.65;45.75;101656.56;5054306;28;20175;-81
2022/08/24 05:49:37;;;;;;;81.10;75.05;;;;;;;25.62;46.01;101665.50;5054046;28;20033;-79
2022/08/24 05:52:02;;;;;;;73.65;68.38;;;;;;;25.61;45.70;101663.88;5053983;28;20033;-80
2022/08/24 05:54:28;;;;;;;75.07;69.78;;;;;;;25.59;45.83;101664.19;5053965;28;20031;-80
2022/08/24 05:56:54;;;;;;;76.55;71.18;;;;;;;25.58;46.07;101668.13;5054424;28;20029;-78
2022/08/24 05:59:21;;;;;;;74.57;69.57;;;;;;;25.57;46.62;101663.69;5053847;28;20433;-78
2022/08/24 06:01:47;;;;;;;75.80;70.90;;;;;;;25.56;46.62;101670.38;5053923;28;20429;-78
2022/08/24 06:04:13;;;;;;;77.35;71.55;;;;;;;25.56;46.91;101669.56;5054091;28;20068;-79
2022/08/24 06:06:38;;;;;;;81.82;75.82;;;;;;;25.53;47.26;101673.78;5054044;28;20041;-78
2022/08/24 06:09:04;;;;;;;78.68;72.78;;;;;;;25.53;47.30;101670.19;5053157;28;20024;-78
2022/08/24 06:11:32;;;;;;;75.28;70.10;;;;;;;25.52;47.42;101665.81;5053807;28;20452;-79
2022/08/24 06:14:02;;;;;;;79.10;73.28;;;;;;;25.51;47.58;101661.44;5053559;28;20071;-78
2022/08/24 06:16:28;;;;;;;80.22;74.30;;;;;;;25.50;47.36;101659.78;5052296;28;20111;-80
2022/08/24 06:18:54;;;;;;;79.70;74.25;;;;;;;25.49;47.63;101667.25;5053518;28;20466;-77
2022/08/24 06:21:24;;;;;;;80.40;74.22;;;;;;;25.48;47.86;101672.00;5052441;28;20068;-79
2022/08/24 06:23:50;;;;;;;77.57;72.10;;;;;;;25.48;47.87;101674.75;5053441;28;20086;-78
2022/08/24 06:28:59;;;;;;;78.80;73.30;;;;;;;25.46;48.08;101670.69;5052780;28;20550;-79
2022/08/24 06:31:26;;;;;;;80.60;75.20;;;;;;;25.45;48.14;101672.63;5052809;28;20057;-79
2022/08/24 06:33:52;;;;;;;74.45;69.32;;;;;;;25.46;48.54;101673.44;5052038;28;20025;-78
2022/08/24 06:36:17;;;;;;;82.75;77.32;;;;;;;25.46;48.39;101684.50;5053722;28;20033;-77
2022/08/24 06:38:43;;;;;;;76.28;70.70;;;;;;;25.46;48.75;101681.75;5053076;28;20069;-78
2022/08/24 06:41:09;;;;;;;80.07;74.53;;;;;;;25.45;49.09;101672.63;5053548;28;20025;-77
2022/08/24 06:43:35;;;;;;;78.03;72.75;;;;;;;25.47;49.08;101675.06;5053020;28;20523;-77
2022/08/24 06:46:02;;;;;;;78.05;72.47;;;;;;;25.46;49.17;101679.78;5052307;28;20033;-77
2022/08/24 06:48:29;;;;;;;78.05;72.30;;;;;;;25.47;49.27;101688.91;5051719;28;20040;-79
2022/08/24 06:50:54;;;;;;;80.75;74.95;;;;;;;25.48;49.25;101687.78;5053312;28;20033;-76
2022/08/24 06:53:20;;;;;;;75.13;69.90;;;;;;;25.49;49.59;101683.88;5052854;28;20043;-76
2022/08/24 06:55:56;;;;;;;77.22;71.88;;;;;;;25.50;49.51;101684.66;5052938;28;20384;-77
2022/08/24 06:58:24;;;;;;;75.68;70.30;;;;;;;25.51;49.78;101686.31;5053554;28;20029;-76
2022/08/24 07:00:49;;;;;;;77.93;72.03;;;;;;;25.53;49.55;101695.94;5053060;28;20033;-77
2022/08/24 07:03:15;;;;;;;76.10;70.57;;;;;;;25.54;49.38;101688.44;5053003;28;20272;-77
2022/08/24 07:05:49;;;;;;;76.78;71.13;;;;;;;25.57;50.25;101690.56;5053002;28;20112;-77
2022/08/24 07:08:14;;;;;;;81.25;75.55;;;;;;;25.58;50.11;101681.13;5052857;28;20025;-75
2022/08/24 07:10:39;;;;;;;77.25;71.95;;;;;;;25.60;49.78;101690.75;5035212;28;20366;-78
2022/08/24 07:13:05;;;;;;;82.30;76.57;;;;;;;25.63;49.45;101689.28;5052884;28;20029;-79
2022/08/24 07:15:30;;;;;;;76.00;71.00;;;;;;;25.67;50.01;101690.25;5052646;28;20435;-77
2022/08/24 07:17:56;;;;;;;77.03;71.75;;;;;;;25.70;50.10;101692.38;5052289;28;20036;-75
2022/08/24 07:20:23;;;;;;;80.35;74.72;;;;;;;25.74;49.98;101690.59;5053772;28;20523;-75
2022/08/24 07:22:49;;;;;;;81.43;75.85;;;;;;;25.78;49.72;101697.13;5056415;28;20116;-77
2022/08/24 07:25:14;;;;;;;78.97;73.72;;;;;;;25.82;49.91;101700.06;5056227;28;20103;-78
2022/08/24 07:27:40;;;;;;;82.38;76.68;;;;;;;25.85;49.89;101702.19;5056018;28;20155;-75
2022/08/24 07:30:06;;;;;;;79.47;73.93;;;;;;;25.87;49.55;101700.72;5055624;28;20029;-76
2022/08/24 07:32:32;;;;;;;79.10;73.32;;;;;;;25.90;49.86;101704.81;5056354;28;20048;-78
2022/08/24 07:34:58;;;;;;;83.45;77.65;;;;;;;25.92;49.83;101704.50;5054728;28;20032;-74
2022/08/24 07:37:23;;;;;;;85.78;79.70;;;;;;;25.94;50.13;101703.03;5056600;28;20124;-76
2022/08/24 07:39:49;;;;;;;79.57;74.22;;;;;;;25.96;49.81;101705.50;5055998;28;20040;-76
2022/08/24 07:42:14;;;;;;;85.45;79.63;;;;;;;25.98;49.94;101712.31;5055826;28;20029;-78
2022/08/24 07:44:39;;;;;;;85.50;79.60;;;;;;;26.00;49.82;101709.22;5055914;28;20041;-78
2022/08/24 07:47:05;;;;;;;83.13;77.10;;;;;;;26.02;50.41;101707.75;5055774;28;20469;-76
2022/08/24 07:49:31;;;;;;;83.53;77.47;;;;;;;26.03;50.32;101706.63;5055382;28;20033;-76
2022/08/24 07:51:56;;;;;;;86.13;79.72;;;;;;;26.06;50.46;101705.16;5055621;28;20039;-78
2022/08/24 07:54:22;;;;;;;81.75;75.68;;;;;;;26.08;50.39;101705.63;5055550;28;20461;-78
2022/08/24 07:57:14;;;;;;;83.95;77.93;;;;;;;26.12;50.65;101707.44;5055400;28;20072;-77
2022/08/24 07:59:39;;;;;;;84.55;79.13;;;;;;;26.15;50.03;101705.97;5054242;28;20112;-77
2022/08/24 08:02:05;;;;;;;81.40;75.93;;;;;;;26.20;50.42;101713.31;5054998;28;20033;-77
2022/08/24 08:04:30;;;;;;;82.90;77.05;;;;;;;26.23;50.59;101709.88;5056010;28;20044;-77
2022/08/24 08:06:56;;;;;;;77.80;72.35;;;;;;;26.26;50.45;101712.81;5054803;28;20041;-78
2022/08/24 08:09:22;;;;;;;84.75;79.22;;;;;;;26.29;50.11;101711.38;5055276;28;20457;-76
2022/08/24 08:11:48;;;;;;;77.80;72.63;;;;;;;26.33;49.74;101710.38;5055313;28;20112;-75
2022/08/24 08:14:14;;;;;;;81.82;75.97;;;;;;;26.38;49.35;101712.16;5056109;28;20049;-77
2022/08/24 08:16:40;;;;;;;79.93;74.38;;;;;;;26.41;49.76;101714.28;5055471;28;20025;-77
2022/08/24 08:19:06;;;;;;;83.05;77.95;;;;;;;26.47;49.57;101714.94;5055030;28;20028;-78
2022/08/24 08:24:16;;;;;;;79.18;74.13;;;;;;;26.56;48.98;101715.78;5055564;28;20480;-76
2022/08/24 08:26:45;;;;;;;76.70;72.15;;;;;;;26.61;48.89;101717.53;5055276;28;20048;-77
2022/08/24 08:29:12;;;;;;;83.75;78.38;;;;;;;26.64;48.43;101717.72;5054976;28;20032;-77
2022/08/24 08:31:38;;;;;;;80.70;75.40;;;;;;;26.69;48.83;101719.50;5055047;28;20060;-78
2022/08/24 08:34:05;;;;;;;77.97;72.53;;;;;;;26.74;48.40;101724.88;5055334;28;20098;-78
2022/08/24 08:36:31;;;;;;;74.22;69.53;;;;;;;26.78;48.62;101731.38;5055119;28;20075;-77
2022/08/24 08:38:56;;;;;;;75.57;71.00;;;;;;;26.82;48.58;101717.69;5054617;28;20049;-79
2022/08/24 08:41:53;;;;;;;80.95;76.07;;;;;;;26.88;48.68;101727.44;5054974;28;20115;-78
2022/08/24 08:44:37;;;;;;;79.23;74.03;;;;;;;26.95;48.75;101722.22;5054946;28;20029;-79
2022/08/24 08:47:21;;;;;;;82.18;76.40;;;;;;;26.98;48.37;101721.53;5055088;28;20260;-79
2022/08/24 08:50:05;;;;;;;81.97;76.45;;;;;;;27.04;48.11;101725.78;5054943;28;20496;-76
2022/08/24 08:52:56;;;;;;;79.70;74.45;;;;;;;27.10;48.29;101726.41;5055413;28;20036;-78
2022/08/24 08:55:33;;;;;;;78.35;73.63;;;;;;;27.14;47.83;101725.41;5054438;28;20035;-78
2022/08/24 08:58:10;;;;;;;83.10;76.95;;;;;;;27.19;47.84;101727.25;5054376;28;20424;-80
2022/08/24 09:00:54;;;;;;;78.30;73.38;;;;;;;27.24;47.71;101729.00;5054483;28;20483;-78
2022/08/24 09:03:45;;;;;;;85.80;79.88;;;;;;;27.29;47.57;101726.03;5054199;28;20021;-77
2022/08/24 09:06:22;;;;;;;76.22;71.38;;;;;;;27.33;47.42;101721.44;5054545;28;20202;-79
2022/08/24 09:09:06;;;;;;;80.93;75.80;;;;;;;27.38;47.19;101724.03;5054428;28;20082;-77
2022/08/24 09:11:47;;;;;;;77.32;72.57;;;;;;;27.43;46.60;101728.59;5054307;28;20033;-78
2022/08/24 09:14:26;;;;;;;79.35;74.50;;;;;;;27.46;46.66;101734.28;5054511;28;20029;-78
2022/08/24 09:17:21;;;;;;;81.35;76.40;;;;;;;27.51;46.90;101736.88;5054260;28;20064;-77
2022/08/24 09:20:04;;;;;;;82.03;76.95;;;;;;;27.55;46.80;101740.59;5053554;28;20025;-77
2022/08/24 09:22:37;;;;;;;78.50;74.25;;;;;;;27.60;46.54;101737.66;5054560;28;20029;-78
2022/08/24 09:25:19;;;;;;;77.53;72.57;;;;;;;27.66;46.54;101741.03;5054072;28;20087;-78
2022/08/24 09:28:19;;;;;;;75.30;70.80;;;;;;;27.72;46.60;101736.09;5086890;28;20033;-78
2022/08/24 09:30:57;;;;;;;79.40;74.90;;;;;;;27.75;46.30;101738.22;5053873;28;20044;-78
2022/08/24 09:33:29;;;;;;;77.38;72.85;;;;;;;27.79;45.90;101733.59;5053759;28;20040;-79
2022/08/24 09:36:06;;;;;;;78.30;74.00;;;;;;;27.82;46.24;101732.97;5053836;28;20107;-77
2022/08/24 09:39:13;;;;;;;69.68;66.03;;;;;;;27.88;45.88;101728.84;5054336;28;20449;-74
2022/08/24 09:41:42;;;;;;;69.53;65.97;;;;;;;27.92;45.52;101732.59;5045370;28;20041;-78
2022/08/24 09:47:11;;;;;;;73.50;69.68;;;;;;;28.01;45.71;101733.31;6006511;22;20005;-71
2022/08/24 09:50:01;;;;;;;72.70;68.97;;;;;;;28.05;45.37;101723.19;4992811;28;20513;-77
2022/08/24 09:52:57;;;;;;;72.40;68.50;;;;;;;28.11;45.37;101728.53;4994650;28;20115;-78
2022/08/24 09:55:44;;;;;;;70.75;67.38;;;;;;;28.17;44.92;101727.16;4994346;28;20027;-78
2022/08/24 09:58:40;;;;;;;72.68;69.07;;;;;;;28.20;44.88;101729.28;4995147;28;20088;-77
2022/08/24 10:01:21;;;;;;;75.78;71.95;;;;;;;28.21;45.22;101723.38;4994645;28;20027;-77
2022/08/24 10:04:14;;;;;;;75.25;71.03;;;;;;;28.26;44.89;101728.72;4994263;28;20026;-77
2022/08/24 10:06:58;;;;;;;74.45;70.60;;;;;;;28.31;45.04;101733.28;4992700;28;20108;-78
2022/08/24 10:10:08;;;;;;;71.80;68.40;;;;;;;28.35;44.49;101723.13;4994466;28;20462;-77
2022/08/24 10:12:48;;;;;;;73.70;69.97;;;;;;;28.40;44.72;101722.91;4977493;28;20042;-77
2022/08/24 10:15:28;;;;;;;72.82;68.88;;;;;;;28.44;44.33;101723.84;4994040;28;20034;-78
2022/08/24 10:18:05;;;;;;;80.35;76.00;;;;;;;28.49;43.88;101717.28;4993638;28;20437;-78
2022/08/24 10:20:52;;;;;;;74.00;70.38;;;;;;;28.52;44.12;101715.78;4994607;28;20109;-78
2022/08/24 10:23:37;;;;;;;74.20;70.50;;;;;;;28.57;44.12;101712.78;4994031;28;20054;-78
2022/08/24 10:26:02;;;;;;;78.72;74.47;;;;;;;28.58;44.36;101706.91;4994020;28;20034;-77
2022/08/24 10:28:55;;;;;;;74.72;70.75;;;;;;;28.63;44.15;101706.69;4993903;28;20034;-79
2022/08/24 10:31:50;;;;;;;77.75;73.63;;;;;;;28.67;44.07;101706.81;4993825;28;20023;-79
2022/08/24 10:34:34;;;;;;;76.47;72.57;;;;;;;28.72;43.99;101709.38;4994470;28;20435;-77
2022/08/24 10:37:18;;;;;;;77.18;73.35;;;;;;;28.75;44.28;101703.09;4993968;28;20450;-75
2022/08/24 10:40:09;;;;;;;74.00;70.30;;;;;;;28.81;44.11;101700.94;4993688;28;20459;-76
2022/08/24 10:43:34;;;;;;;79.82;76.00;;;;;;;28.85;43.76;101707.44;4994308;28;20169;-77
2022/08/24 10:46:27;;;;;;;77.03;73.03;;;;;;;28.88;43.87;101706.75;4982320;28;20118;-77
2022/08/24 10:49:05;;;;;;;74.85;71.18;;;;;;;28.91;44.15;101694.94;4984957;28;20086;-76
2022/08/24 10:52:13;;;;;;;78.10;74.30;;;;;;;28.97;43.65;101701.09;4993882;28;20074;-78
2022/08/24 10:54:39;;;;;;;69.70;66.35;;;;;;;29.01;43.62;101693.69;4995942;28;20386;-77
2022/08/24 10:57:24;;;;;;;77.70;73.68;;;;;;;29.04;43.40;101691.00;4997454;28;20030;-79
2022/08/24 11:00:01;;;;;;;76.97;73.28;;;;;;;29.08;43.36;101697.56;4997836;28;20426;-78
2022/08/24 11:02:29;;;;;;;77.35;73.55;;;;;;;29.11;43.36;101682.94;4997659;28;20065;-78
2022/08/24 11:05:29;;;;;;;75.70;72.07;;;;;;;29.18;43.72;101687.09;4997671;28;20105;-77
2022/08/24 11:08:03;;;;;;;78.65;74.85;;;;;;;29.20;43.85;101688.38;4993019;28;20129;-78
2022/08/24 11:10:34;;;;;;;76.63;72.90;;;;;;;29.24;43.45;101685.72;4997878;28;20038;-79
2022/08/24 11:13:16;;;;;;;76.18;72.38;;;;;;;29.27;43.51;101674.72;4997521;28;20030;-78
2022/08/24 11:15:51;;;;;;;78.53;74.72;;;;;;;29.32;43.34;101679.22;4997383;28;20405;-77
2022/08/24 11:18:18;;;;;;;77.78;73.88;;;;;;;29.36;43.77;101674.59;5012468;28;20038;-77
2022/08/24 11:20:45;;;;;;;82.45;78.63;;;;;;;29.40;43.17;101669.94;4997567;28;20038;-78
2022/08/24 11:23:23;;;;;;;82.00;77.43;;;;;;;29.43;43.24;101671.22;4997125;28;20096;-79
2022/08/24 11:26:10;;;;;;;83.60;79.10;;;;;;;29.48;42.93;101669.03;4997845;28;20069;-77
2022/08/24 11:28:39;;;;;;;77.10;73.40;;;;;;;29.51;43.24;101676.69;4997135;28;20022;-76
2022/08/24 11:31:10;;;;;;;81.15;77.38;;;;;;;29.55;43.16;101671.22;4997070;28;20019;-75
2022/08/24 11:33:51;;;;;;;76.90;73.10;;;;;;;29.59;42.39;101676.91;4997203;28;20030;-79
2022/08/24 11:36:20;;;;;;;78.43;74.70;;;;;;;29.63;42.64;101664.69;4997626;28;20030;-79